sensor_id;sensor_type;location;lat;lon;timestamp;temperature;humidity
43679;DHT22;29279;50.858;4.392;2023-02-15T00:01:47;10.10;99.90
43679;DHT22;29279;50.858;4.392;2023-02-15T00:04:14;10.20;99.90
43679;DHT22;29279;50.858;4.392;2023-02-15T00:06:40;10.20;99.90
43679;DHT22;29279;50.858;4.392;2023-02-15T00:09:06;10.20;99.90
43679;DHT22;29279;50.858;4.392;2023-02-15T00:11:32;10.20;99.90
43679;DHT22;29279;50.858;4.392;2023-02-15T00:14:21;10.30;99.90
43679;DHT22;29279;50.858;4.392;2023-02-15T00:16:48;10.30;99.90
43679;DHT22;29279;50.858;4.392;2023-02-15T00:19:15;10.30;99.90
43679;DHT22;29279;50.858;4.392;2023-02-15T00:21:42;10.30;99.90
43679;DHT22;29279;50.858;4.392;2023-02-15T00:24:10;10.20;99.90
43679;DHT22;29279;50.858;4.392;2023-02-15T00:26:39;10.20;99.90
43679;DHT22;29279;50.858;4.392;2023-02-15T00:29:05;10.20;99.90
43679;DHT22;29279;50.858;4.392;2023-02-15T00:31:32;10.20;99.90
43679;DHT22;29279;50.858;4.392;2023-02-15T00:34:18;10.20;99.90
43679;DHT22;29279;50.858;4.392;2023-02-15T00:36:44;10.30;99.90
43679;DHT22;29279;50.858;4.392;2023-02-15T00:39:10;10.20;99.90
43679;DHT22;29279;50.858;4.392;2023-02-15T00:41:36;10.20;99.90
43679;DHT22;29279;50.858;4.392;2023-02-15T00:44:02;10.20;99.90
43679;DHT22;29279;50.858;4.392;2023-02-15T00:46:28;10.20;99.90
43679;DHT22;29279;50.858;4.392;2023-02-15T00:48:54;10.40;99.90
43679;DHT22;29279;50.858;4.392;2023-02-15T00:51:19;10.40;99.90
43679;DHT22;29279;50.858;4.392;2023-02-15T00:53:48;10.30;99.90
43679;DHT22;29279;50.858;4.392;2023-02-15T00:56:14;10.40;99.90
43679;DHT22;29279;50.858;4.392;2023-02-15T00:58:40;10.30;99.90
43679;DHT22;29279;50.858;4.392;2023-02-15T01:01:12;10.20;99.90
43679;DHT22;29279;50.858;4.392;2023-02-15T01:03:38;10.10;99.90
43679;DHT22;29279;50.858;4.392;2023-02-15T01:06:06;9.90;99.90
43679;DHT22;29279;50.858;4.392;2023-02-15T01:08:35;9.90;99.90
43679;DHT22;29279;50.858;4.392;2023-02-15T01:11:09;9.70;99.90
43679;DHT22;29279;50.858;4.392;2023-02-15T01:13:35;9.70;99.90
43679;DHT22;29279;50.858;4.392;2023-02-15T01:16:02;9.70;99.90
43679;DHT22;29279;50.858;4.392;2023-02-15T01:18:28;9.60;99.90
43679;DHT22;29279;50.858;4.392;2023-02-15T01:20:55;9.70;99.90
43679;DHT22;29279;50.858;4.392;2023-02-15T01:23:21;9.80;99.90
43679;DHT22;29279;50.858;4.392;2023-02-15T01:25:49;9.80;99.90
43679;DHT22;29279;50.858;4.392;2023-02-15T01:28:15;9.60;99.90
43679;DHT22;29279;50.858;4.392;2023-02-15T01:30:41;9.50;99.90
43679;DHT22;29279;50.858;4.392;2023-02-15T01:33:07;9.60;99.90
43679;DHT22;29279;50.858;4.392;2023-02-15T01:35:33;9.50;99.90
43679;DHT22;29279;50.858;4.392;2023-02-15T01:37:58;9.50;99.90
43679;DHT22;29279;50.858;4.392;2023-02-15T01:40:25;9.60;99.90
43679;DHT22;29279;50.858;4.392;2023-02-15T01:42:52;9.60;99.90
43679;DHT22;29279;50.858;4.392;2023-02-15T01:45:26;9.60;99.90
43679;DHT22;29279;50.858;4.392;2023-02-15T01:48:03;9.80;99.90
43679;DHT22;29279;50.858;4.392;2023-02-15T01:50:44;9.80;99.90
43679;DHT22;29279;50.858;4.392;2023-02-15T01:53:25;9.70;99.90
43679;DHT22;29279;50.858;4.392;2023-02-15T01:55:59;9.50;99.90
43679;DHT22;29279;50.858;4.392;2023-02-15T01:58:28;9.40;99.90
43679;DHT22;29279;50.858;4.392;2023-02-15T02:00:59;9.30;99.90
43679;DHT22;29279;50.858;4.392;2023-02-15T02:03:42;9.30;99.90
43679;DHT22;29279;50.858;4.392;2023-02-15T02:06:10;9.40;99.90
43679;DHT22;29279;50.858;4.392;2023-02-15T02:08:35;9.30;99.90
43679;DHT22;29279;50.858;4.392;2023-02-15T02:11:01;9.30;99.90
43679;DHT22;29279;50.858;4.392;2023-02-15T02:13:27;9.30;99.90
43679;DHT22;29279;50.858;4.392;2023-02-15T02:16:27;9.40;99.90
43679;DHT22;29279;50.858;4.392;2023-02-15T02:31:06;9.20;99.90
43679;DHT22;29279;50.858;4.392;2023-02-15T02:39:55;8.60;99.90
43679;DHT22;29279;50.858;4.392;2023-02-15T02:42:36;8.50;99.90
43679;DHT22;29279;50.858;4.392;2023-02-15T02:45:15;8.50;99.90
43679;DHT22;29279;50.858;4.392;2023-02-15T02:47:55;8.50;99.90
43679;DHT22;29279;50.858;4.392;2023-02-15T02:50:27;8.60;99.90
43679;DHT22;29279;50.858;4.392;2023-02-15T02:52:54;8.90;99.90
43679;DHT22;29279;50.858;4.392;2023-02-15T02:58:17;8.70;99.90
43679;DHT22;29279;50.858;4.392;2023-02-15T03:03:39;8.30;99.90
43679;DHT22;29279;50.858;4.392;2023-02-15T03:06:16;8.40;99.90
43679;DHT22;29279;50.858;4.392;2023-02-15T03:08:51;8.40;99.90
43679;DHT22;29279;50.858;4.392;2023-02-15T03:11:20;8.20;99.90
43679;DHT22;29279;50.858;4.392;2023-02-15T03:13:48;8.20;99.90
43679;DHT22;29279;50.858;4.392;2023-02-15T03:16:16;8.20;99.90
43679;DHT22;29279;50.858;4.392;2023-02-15T03:19:07;8.30;99.90
43679;DHT22;29279;50.858;4.392;2023-02-15T03:21:42;8.40;99.90
43679;DHT22;29279;50.858;4.392;2023-02-15T03:24:17;8.30;99.90
43679;DHT22;29279;50.858;4.392;2023-02-15T03:26:49;8.20;99.90
43679;DHT22;29279;50.858;4.392;2023-02-15T03:29:18;8.10;99.90
43679;DHT22;29279;50.858;4.392;2023-02-15T03:31:48;8.00;99.90
43679;DHT22;29279;50.858;4.392;2023-02-15T03:34:15;7.90;99.90
43679;DHT22;29279;50.858;4.392;2023-02-15T03:37:00;7.80;99.90
43679;DHT22;29279;50.858;4.392;2023-02-15T03:39:47;8.00;99.90
43679;DHT22;29279;50.858;4.392;2023-02-15T03:42:19;8.00;99.90
43679;DHT22;29279;50.858;4.392;2023-02-15T03:45:08;8.10;99.90
43679;DHT22;29279;50.858;4.392;2023-02-15T03:47:41;8.20;99.90
43679;DHT22;29279;50.858;4.392;2023-02-15T03:50:19;8.30;99.90
43679;DHT22;29279;50.858;4.392;2023-02-15T03:53:07;8.50;99.90
43679;DHT22;29279;50.858;4.392;2023-02-15T03:55:35;8.70;99.90
43679;DHT22;29279;50.858;4.392;2023-02-15T03:58:01;8.60;99.90
43679;DHT22;29279;50.858;4.392;2023-02-15T04:01:05;8.40;99.90
43679;DHT22;29279;50.858;4.392;2023-02-15T04:04:15;8.20;99.90
43679;DHT22;29279;50.858;4.392;2023-02-15T04:06:43;8.10;99.90
43679;DHT22;29279;50.858;4.392;2023-02-15T04:09:12;8.20;99.90
43679;DHT22;29279;50.858;4.392;2023-02-15T04:11:57;8.10;99.90
43679;DHT22;29279;50.858;4.392;2023-02-15T04:14:22;8.20;99.90
43679;DHT22;29279;50.858;4.392;2023-02-15T04:17:07;8.10;99.90
43679;DHT22;29279;50.858;4.392;2023-02-15T04:19:33;8.10;99.90
43679;DHT22;29279;50.858;4.392;2023-02-15T04:22:18;8.00;99.90
43679;DHT22;29279;50.858;4.392;2023-02-15T04:25:03;8.10;99.90
43679;DHT22;29279;50.858;4.392;2023-02-15T04:27:35;8.10;99.90
43679;DHT22;29279;50.858;4.392;2023-02-15T04:30:01;8.20;99.90
43679;DHT22;29279;50.858;4.392;2023-02-15T04:32:27;8.20;99.90
43679;DHT22;29279;50.858;4.392;2023-02-15T04:34:53;8.20;99.90
43679;DHT22;29279;50.858;4.392;2023-02-15T04:37:18;8.20;99.90
43679;DHT22;29279;50.858;4.392;2023-02-15T04:39:44;8.20;99.90
43679;DHT22;29279;50.858;4.392;2023-02-15T04:42:10;8.30;99.90
43679;DHT22;29279;50.858;4.392;2023-02-15T04:44:35;8.50;99.90
43679;DHT22;29279;50.858;4.392;2023-02-15T04:47:01;8.50;99.90
43679;DHT22;29279;50.858;4.392;2023-02-15T04:49:27;8.40;99.90
43679;DHT22;29279;50.858;4.392;2023-02-15T04:51:52;8.60;99.90
43679;DHT22;29279;50.858;4.392;2023-02-15T04:54:18;8.60;99.90
43679;DHT22;29279;50.858;4.392;2023-02-15T04:56:44;8.50;99.90
43679;DHT22;29279;50.858;4.392;2023-02-15T04:59:10;8.50;99.90
43679;DHT22;29279;50.858;4.392;2023-02-15T05:01:37;8.40;99.90
43679;DHT22;29279;50.858;4.392;2023-02-15T05:04:02;8.40;99.90
43679;DHT22;29279;50.858;4.392;2023-02-15T05:06:28;8.30;99.90
43679;DHT22;29279;50.858;4.392;2023-02-15T05:08:54;8.30;99.90
43679;DHT22;29279;50.858;4.392;2023-02-15T05:11:19;8.30;99.90
43679;DHT22;29279;50.858;4.392;2023-02-15T05:13:45;8.10;99.90
43679;DHT22;29279;50.858;4.392;2023-02-15T05:16:11;8.10;99.90
43679;DHT22;29279;50.858;4.392;2023-02-15T05:18:37;8.10;99.90
43679;DHT22;29279;50.858;4.392;2023-02-15T05:21:03;8.00;99.90
43679;DHT22;29279;50.858;4.392;2023-02-15T05:23:28;7.90;99.90
43679;DHT22;29279;50.858;4.392;2023-02-15T05:25:54;7.80;99.90
43679;DHT22;29279;50.858;4.392;2023-02-15T05:28:38;7.90;99.90
43679;DHT22;29279;50.858;4.392;2023-02-15T05:31:13;8.10;99.90
43679;DHT22;29279;50.858;4.392;2023-02-15T05:33:40;8.10;99.90
43679;DHT22;29279;50.858;4.392;2023-02-15T05:36:06;8.00;99.90
43679;DHT22;29279;50.858;4.392;2023-02-15T05:38:32;8.00;99.90
43679;DHT22;29279;50.858;4.392;2023-02-15T05:40:58;8.00;99.90
43679;DHT22;29279;50.858;4.392;2023-02-15T05:43:25;8.00;99.90
43679;DHT22;29279;50.858;4.392;2023-02-15T05:45:53;7.90;99.90
43679;DHT22;29279;50.858;4.392;2023-02-15T05:48:20;7.90;99.90
43679;DHT22;29279;50.858;4.392;2023-02-15T05:50:46;7.80;99.90
43679;DHT22;29279;50.858;4.392;2023-02-15T05:53:14;7.70;99.90
43679;DHT22;29279;50.858;4.392;2023-02-15T05:55:40;7.60;99.90
43679;DHT22;29279;50.858;4.392;2023-02-15T05:58:07;7.60;99.90
43679;DHT22;29279;50.858;4.392;2023-02-15T06:00:33;7.70;99.90
43679;DHT22;29279;50.858;4.392;2023-02-15T06:02:59;7.80;99.90
43679;DHT22;29279;50.858;4.392;2023-02-15T06:05:26;7.80;99.90
43679;DHT22;29279;50.858;4.392;2023-02-15T06:07:52;7.80;99.90
43679;DHT22;29279;50.858;4.392;2023-02-15T06:10:17;7.80;99.90
43679;DHT22;29279;50.858;4.392;2023-02-15T06:12:44;7.90;99.90
43679;DHT22;29279;50.858;4.392;2023-02-15T06:15:10;7.90;99.90
43679;DHT22;29279;50.858;4.392;2023-02-15T06:17:36;7.90;99.90
43679;DHT22;29279;50.858;4.392;2023-02-15T06:20:01;8.00;99.90
43679;DHT22;29279;50.858;4.392;2023-02-15T06:22:28;8.00;99.90
43679;DHT22;29279;50.858;4.392;2023-02-15T06:24:53;8.00;99.90
43679;DHT22;29279;50.858;4.392;2023-02-15T06:27:19;8.10;99.90
43679;DHT22;29279;50.858;4.392;2023-02-15T06:29:44;8.20;99.90
43679;DHT22;29279;50.858;4.392;2023-02-15T06:32:10;8.30;99.90
43679;DHT22;29279;50.858;4.392;2023-02-15T06:34:36;8.20;99.90
43679;DHT22;29279;50.858;4.392;2023-02-15T06:37:01;8.20;99.90
43679;DHT22;29279;50.858;4.392;2023-02-15T06:39:27;8.20;99.90
43679;DHT22;29279;50.858;4.392;2023-02-15T06:41:53;8.20;99.90
43679;DHT22;29279;50.858;4.392;2023-02-15T06:44:18;8.10;99.90
43679;DHT22;29279;50.858;4.392;2023-02-15T06:46:44;8.00;99.90
43679;DHT22;29279;50.858;4.392;2023-02-15T06:49:10;8.00;99.90
43679;DHT22;29279;50.858;4.392;2023-02-15T06:51:35;8.00;99.90
43679;DHT22;29279;50.858;4.392;2023-02-15T06:54:01;8.00;99.90
43679;DHT22;29279;50.858;4.392;2023-02-15T06:56:27;8.10;99.90
43679;DHT22;29279;50.858;4.392;2023-02-15T06:58:52;8.10;99.90
43679;DHT22;29279;50.858;4.392;2023-02-15T07:01:19;8.20;99.90
43679;DHT22;29279;50.858;4.392;2023-02-15T07:03:45;8.20;99.90
43679;DHT22;29279;50.858;4.392;2023-02-15T07:06:10;8.20;99.90
43679;DHT22;29279;50.858;4.392;2023-02-15T07:08:37;8.20;99.90
43679;DHT22;29279;50.858;4.392;2023-02-15T07:11:04;8.10;99.90
43679;DHT22;29279;50.858;4.392;2023-02-15T07:13:48;8.20;99.90
43679;DHT22;29279;50.858;4.392;2023-02-15T07:16:14;8.30;99.90
43679;DHT22;29279;50.858;4.392;2023-02-15T07:18:40;8.10;99.90
43679;DHT22;29279;50.858;4.392;2023-02-15T07:21:06;8.10;99.90
43679;DHT22;29279;50.858;4.392;2023-02-15T07:23:38;8.10;99.90
43679;DHT22;29279;50.858;4.392;2023-02-15T07:26:05;8.20;99.90
43679;DHT22;29279;50.858;4.392;2023-02-15T07:28:33;8.20;99.90
43679;DHT22;29279;50.858;4.392;2023-02-15T07:31:01;8.30;99.90
43679;DHT22;29279;50.858;4.392;2023-02-15T07:33:27;8.50;99.90
43679;DHT22;29279;50.858;4.392;2023-02-15T07:35:58;8.50;99.90
43679;DHT22;29279;50.858;4.392;2023-02-15T07:38:25;8.60;99.90
43679;DHT22;29279;50.858;4.392;2023-02-15T07:40:56;8.60;99.90
43679;DHT22;29279;50.858;4.392;2023-02-15T07:43:22;8.60;99.90
43679;DHT22;29279;50.858;4.392;2023-02-15T07:45:48;8.60;99.90
43679;DHT22;29279;50.858;4.392;2023-02-15T07:48:14;8.50;99.90
43679;DHT22;29279;50.858;4.392;2023-02-15T07:50:39;8.70;99.90
43679;DHT22;29279;50.858;4.392;2023-02-15T07:53:05;8.90;99.90
43679;DHT22;29279;50.858;4.392;2023-02-15T07:55:31;9.00;99.90
43679;DHT22;29279;50.858;4.392;2023-02-15T07:57:57;8.90;99.90
43679;DHT22;29279;50.858;4.392;2023-02-15T08:00:23;9.00;99.90
43679;DHT22;29279;50.858;4.392;2023-02-15T08:02:56;9.10;99.90
43679;DHT22;29279;50.858;4.392;2023-02-15T08:05:42;9.30;99.90
43679;DHT22;29279;50.858;4.392;2023-02-15T08:08:09;9.50;99.90
43679;DHT22;29279;50.858;4.392;2023-02-15T08:11:13;9.90;99.90
43679;DHT22;29279;50.858;4.392;2023-02-15T08:14:09;10.10;99.90
43679;DHT22;29279;50.858;4.392;2023-02-15T08:21:39;11.50;99.60
43679;DHT22;29279;50.858;4.392;2023-02-15T08:24:07;12.00;98.60
43679;DHT22;29279;50.858;4.392;2023-02-15T08:26:33;12.40;97.50
43679;DHT22;29279;50.858;4.392;2023-02-15T08:29:00;12.70;96.80
43679;DHT22;29279;50.858;4.392;2023-02-15T08:31:27;13.20;96.20
43679;DHT22;29279;50.858;4.392;2023-02-15T08:33:54;13.90;95.40
43679;DHT22;29279;50.858;4.392;2023-02-15T08:36:22;14.60;94.10
43679;DHT22;29279;50.858;4.392;2023-02-15T08:38:49;15.00;92.80
43679;DHT22;29279;50.858;4.392;2023-02-15T08:41:22;15.30;91.50
43679;DHT22;29279;50.858;4.392;2023-02-15T08:43:50;15.60;91.00
43679;DHT22;29279;50.858;4.392;2023-02-15T08:46:17;16.00;90.90
43679;DHT22;29279;50.858;4.392;2023-02-15T08:48:44;16.30;89.90
43679;DHT22;29279;50.858;4.392;2023-02-15T08:51:13;16.40;88.30
43679;DHT22;29279;50.858;4.392;2023-02-15T08:53:40;16.40;86.20
43679;DHT22;29279;50.858;4.392;2023-02-15T08:56:07;16.60;86.20
43679;DHT22;29279;50.858;4.392;2023-02-15T08:58:33;16.80;86.10
43679;DHT22;29279;50.858;4.392;2023-02-15T09:00:59;16.70;84.40
43679;DHT22;29279;50.858;4.392;2023-02-15T09:03:27;16.50;84.00
43679;DHT22;29279;50.858;4.392;2023-02-15T09:05:58;16.50;84.80
43679;DHT22;29279;50.858;4.392;2023-02-15T09:08:25;16.70;83.70
43679;DHT22;29279;50.858;4.392;2023-02-15T09:10:51;17.10;82.60
43679;DHT22;29279;50.858;4.392;2023-02-15T09:13:16;17.30;82.30
43679;DHT22;29279;50.858;4.392;2023-02-15T09:15:42;17.60;81.80
43679;DHT22;29279;50.858;4.392;2023-02-15T09:18:07;17.50;80.40
43679;DHT22;29279;50.858;4.392;2023-02-15T09:20:36;17.80;80.60
43679;DHT22;29279;50.858;4.392;2023-02-15T09:23:02;18.10;79.30
43679;DHT22;29279;50.858;4.392;2023-02-15T09:25:28;18.30;78.30
43679;DHT22;29279;50.858;4.392;2023-02-15T09:27:54;18.30;77.30
43679;DHT22;29279;50.858;4.392;2023-02-15T09:30:19;18.10;77.50
43679;DHT22;29279;50.858;4.392;2023-02-15T09:32:45;18.20;78.00
43679;DHT22;29279;50.858;4.392;2023-02-15T09:35:13;18.40;76.80
43679;DHT22;29279;50.858;4.392;2023-02-15T09:37:39;18.30;77.00
43679;DHT22;29279;50.858;4.392;2023-02-15T09:40:05;18.50;76.10
43679;DHT22;29279;50.858;4.392;2023-02-15T09:56:49;18.50;75.00
43679;DHT22;29279;50.858;4.392;2023-02-15T10:04:49;19.00;75.00
43679;DHT22;29279;50.858;4.392;2023-02-15T10:10:17;19.40;73.70
43679;DHT22;29279;50.858;4.392;2023-02-15T10:13:39;20.10;72.50
43679;DHT22;29279;50.858;4.392;2023-02-15T10:15:58;20.40;72.00
43679;DHT22;29279;50.858;4.392;2023-02-15T10:18:49;20.40;71.80
43679;DHT22;29279;50.858;4.392;2023-02-15T10:26:49;19.80;71.30
43679;DHT22;29279;50.858;4.392;2023-02-15T10:29:30;19.90;71.80
43679;DHT22;29279;50.858;4.392;2023-02-15T10:32:22;19.90;71.10
43679;DHT22;29279;50.858;4.392;2023-02-15T10:34:53;20.10;70.70
43679;DHT22;29279;50.858;4.392;2023-02-15T10:40:08;20.70;70.20
43679;DHT22;29279;50.858;4.392;2023-02-15T10:51:08;23.20;70.10
43679;DHT22;29279;50.858;4.392;2023-02-15T10:53:55;23.20;69.40
43679;DHT22;29279;50.858;4.392;2023-02-15T10:57:01;22.90;68.60
43679;DHT22;29279;50.858;4.392;2023-02-15T10:59:57;22.30;69.40
43679;DHT22;29279;50.858;4.392;2023-02-15T11:05:29;21.80;68.70
43679;DHT22;29279;50.858;4.392;2023-02-15T11:08:00;21.40;69.20
43679;DHT22;29279;50.858;4.392;2023-02-15T11:10:49;21.50;69.20
43679;DHT22;29279;50.858;4.392;2023-02-15T11:13:19;21.80;69.70
43679;DHT22;29279;50.858;4.392;2023-02-15T11:15:50;22.10;68.60
43679;DHT22;29279;50.858;4.392;2023-02-15T11:18:39;22.30;67.20
43679;DHT22;29279;50.858;4.392;2023-02-15T11:21:17;21.90;68.40
43679;DHT22;29279;50.858;4.392;2023-02-15T11:23:46;21.50;69.70
43679;DHT22;29279;50.858;4.392;2023-02-15T11:26:21;21.20;69.80
43679;DHT22;29279;50.858;4.392;2023-02-15T11:28:54;20.70;69.20
43679;DHT22;29279;50.858;4.392;2023-02-15T11:31:23;20.40;69.50
43679;DHT22;29279;50.858;4.392;2023-02-15T11:34:01;20.30;70.60
43679;DHT22;29279;50.858;4.392;2023-02-15T11:36:32;20.80;70.80
43679;DHT22;29279;50.858;4.392;2023-02-15T11:39:03;21.50;69.40
43679;DHT22;29279;50.858;4.392;2023-02-15T11:41:36;22.50;68.60
43679;DHT22;29279;50.858;4.392;2023-02-15T11:44:06;23.20;67.20
43679;DHT22;29279;50.858;4.392;2023-02-15T11:46:34;23.50;66.50
43679;DHT22;29279;50.858;4.392;2023-02-15T11:49:00;23.30;66.60
43679;DHT22;29279;50.858;4.392;2023-02-15T11:51:27;23.00;66.00
43679;DHT22;29279;50.858;4.392;2023-02-15T11:53:54;22.30;66.80
43679;DHT22;29279;50.858;4.392;2023-02-15T11:56:22;21.70;67.60
43679;DHT22;29279;50.858;4.392;2023-02-15T11:58:55;21.70;68.10
43679;DHT22;29279;50.858;4.392;2023-02-15T12:04:06;21.30;68.60
43679;DHT22;29279;50.858;4.392;2023-02-15T12:06:38;21.50;68.30
43679;DHT22;29279;50.858;4.392;2023-02-15T12:12:25;21.90;68.30
43679;DHT22;29279;50.858;4.392;2023-02-15T12:15:18;21.30;68.70
43679;DHT22;29279;50.858;4.392;2023-02-15T12:17:55;20.60;69.50
43679;DHT22;29279;50.858;4.392;2023-02-15T12:22:52;19.50;71.40
43679;DHT22;29279;50.858;4.392;2023-02-15T12:25:52;19.30;72.10
43679;DHT22;29279;50.858;4.392;2023-02-15T12:28:28;19.30;72.30
43679;DHT22;29279;50.858;4.392;2023-02-15T12:30:56;19.40;72.60
43679;DHT22;29279;50.858;4.392;2023-02-15T12:33:50;19.40;72.80
43679;DHT22;29279;50.858;4.392;2023-02-15T12:36:24;19.60;72.30
43679;DHT22;29279;50.858;4.392;2023-02-15T12:41:29;19.80;71.90
43679;DHT22;29279;50.858;4.392;2023-02-15T12:44:15;20.20;71.90
43679;DHT22;29279;50.858;4.392;2023-02-15T12:46:41;20.80;70.70
43679;DHT22;29279;50.858;4.392;2023-02-15T12:49:18;21.70;70.20
43679;DHT22;29279;50.858;4.392;2023-02-15T12:51:49;22.50;68.90
43679;DHT22;29279;50.858;4.392;2023-02-15T12:54:31;22.90;67.60
43679;DHT22;29279;50.858;4.392;2023-02-15T12:56:58;22.80;67.90
43679;DHT22;29279;50.858;4.392;2023-02-15T12:59:24;23.20;67.40
43679;DHT22;29279;50.858;4.392;2023-02-15T13:01:52;23.40;66.80
43679;DHT22;29279;50.858;4.392;2023-02-15T13:04:28;23.30;66.90
43679;DHT22;29279;50.858;4.392;2023-02-15T13:07:00;23.10;67.40
43679;DHT22;29279;50.858;4.392;2023-02-15T13:11:57;23.10;67.00
43679;DHT22;29279;50.858;4.392;2023-02-15T13:14:34;23.10;67.00
43679;DHT22;29279;50.858;4.392;2023-02-15T13:17:03;22.70;67.70
43679;DHT22;29279;50.858;4.392;2023-02-15T13:20:03;22.50;67.70
43679;DHT22;29279;50.858;4.392;2023-02-15T13:22:42;22.30;68.40
43679;DHT22;29279;50.858;4.392;2023-02-15T13:25:32;22.60;68.10
43679;DHT22;29279;50.858;4.392;2023-02-15T13:28:04;22.40;68.30
43679;DHT22;29279;50.858;4.392;2023-02-15T13:30:36;22.90;68.00
43679;DHT22;29279;50.858;4.392;2023-02-15T13:33:13;23.00;67.90
43679;DHT22;29279;50.858;4.392;2023-02-15T13:44:24;22.10;68.80
43679;DHT22;29279;50.858;4.392;2023-02-15T13:52:25;21.80;69.40
43679;DHT22;29279;50.858;4.392;2023-02-15T14:11:24;21.10;70.30
43679;DHT22;29279;50.858;4.392;2023-02-15T14:16:56;21.50;69.90
43679;DHT22;29279;50.858;4.392;2023-02-15T14:19:30;21.80;69.30
43679;DHT22;29279;50.858;4.392;2023-02-15T14:22:35;21.40;69.90
43679;DHT22;29279;50.858;4.392;2023-02-15T14:25:25;20.80;71.10
43679;DHT22;29279;50.858;4.392;2023-02-15T14:30:37;19.00;74.20
43679;DHT22;29279;50.858;4.392;2023-02-15T14:35:42;18.20;76.50
43679;DHT22;29279;50.858;4.392;2023-02-15T14:40:59;17.60;77.50
43679;DHT22;29279;50.858;4.392;2023-02-15T14:46:46;17.40;78.60
43679;DHT22;29279;50.858;4.392;2023-02-15T14:49:21;17.60;78.80
43679;DHT22;29279;50.858;4.392;2023-02-15T14:56:45;17.30;79.60
43679;DHT22;29279;50.858;4.392;2023-02-15T15:01:37;17.10;80.00
43679;DHT22;29279;50.858;4.392;2023-02-15T15:04:12;16.70;81.30
43679;DHT22;29279;50.858;4.392;2023-02-15T15:06:41;16.50;82.00
43679;DHT22;29279;50.858;4.392;2023-02-15T15:11:53;16.20;82.60
43679;DHT22;29279;50.858;4.392;2023-02-15T15:14:48;16.10;83.30
43679;DHT22;29279;50.858;4.392;2023-02-15T15:22:50;16.60;82.80
43679;DHT22;29279;50.858;4.392;2023-02-15T15:28:05;16.90;82.30
43679;DHT22;29279;50.858;4.392;2023-02-15T15:39:28;16.40;83.40
43679;DHT22;29279;50.858;4.392;2023-02-15T15:47:57;15.50;86.00
43679;DHT22;29279;50.858;4.392;2023-02-15T15:50:20;15.10;87.20
43679;DHT22;29279;50.858;4.392;2023-02-15T15:52:51;14.90;88.20
43679;DHT22;29279;50.858;4.392;2023-02-15T15:55:21;14.80;88.90
43679;DHT22;29279;50.858;4.392;2023-02-15T15:57:51;14.60;89.50
43679;DHT22;29279;50.858;4.392;2023-02-15T16:02:56;14.40;90.30
43679;DHT22;29279;50.858;4.392;2023-02-15T16:05:22;14.30;90.40
43679;DHT22;29279;50.858;4.392;2023-02-15T16:07:49;14.20;90.40
43679;DHT22;29279;50.858;4.392;2023-02-15T16:10:24;14.20;90.70
43679;DHT22;29279;50.858;4.392;2023-02-15T16:12:50;14.20;90.80
43679;DHT22;29279;50.858;4.392;2023-02-15T16:15:23;14.10;90.90
43679;DHT22;29279;50.858;4.392;2023-02-15T16:17:56;14.20;91.00
43679;DHT22;29279;50.858;4.392;2023-02-15T16:20:27;14.00;90.90
43679;DHT22;29279;50.858;4.392;2023-02-15T16:26:05;13.80;91.20
43679;DHT22;29279;50.858;4.392;2023-02-15T16:28:34;13.80;91.50
43679;DHT22;29279;50.858;4.392;2023-02-15T16:31:12;13.70;91.60
43679;DHT22;29279;50.858;4.392;2023-02-15T16:33:39;13.60;91.90
43679;DHT22;29279;50.858;4.392;2023-02-15T16:36:10;13.70;91.80
43679;DHT22;29279;50.858;4.392;2023-02-15T16:41:09;13.90;91.90
43679;DHT22;29279;50.858;4.392;2023-02-15T16:43:36;13.60;92.00
43679;DHT22;29279;50.858;4.392;2023-02-15T16:46:10;13.50;92.40
43679;DHT22;29279;50.858;4.392;2023-02-15T16:48:41;13.30;92.90
43679;DHT22;29279;50.858;4.392;2023-02-15T16:51:08;13.30;93.30
43679;DHT22;29279;50.858;4.392;2023-02-15T16:53:34;13.30;93.50
43679;DHT22;29279;50.858;4.392;2023-02-15T16:56:04;13.30;93.50
43679;DHT22;29279;50.858;4.392;2023-02-15T16:58:50;13.30;93.70
43679;DHT22;29279;50.858;4.392;2023-02-15T17:01:20;13.10;94.10
43679;DHT22;29279;50.858;4.392;2023-02-15T17:03:49;13.00;94.30
43679;DHT22;29279;50.858;4.392;2023-02-15T17:06:24;12.90;94.60
43679;DHT22;29279;50.858;4.392;2023-02-15T17:09:04;12.80;94.90
43679;DHT22;29279;50.858;4.392;2023-02-15T17:11:39;12.80;95.10
43679;DHT22;29279;50.858;4.392;2023-02-15T17:19:27;12.70;96.40
43679;DHT22;29279;50.858;4.392;2023-02-15T17:21:55;12.60;96.40
43679;DHT22;29279;50.858;4.392;2023-02-15T17:24:33;12.50;96.60
43679;DHT22;29279;50.858;4.392;2023-02-15T17:27:06;12.50;96.60
43679;DHT22;29279;50.858;4.392;2023-02-15T17:29:36;12.40;96.80
43679;DHT22;29279;50.858;4.392;2023-02-15T17:32:04;12.50;96.80
43679;DHT22;29279;50.858;4.392;2023-02-15T17:35:05;12.40;96.80
43679;DHT22;29279;50.858;4.392;2023-02-15T17:40:28;12.20;97.30
43679;DHT22;29279;50.858;4.392;2023-02-15T17:42:54;12.20;97.40
43679;DHT22;29279;50.858;4.392;2023-02-15T17:45:22;12.30;97.30
43679;DHT22;29279;50.858;4.392;2023-02-15T17:47:50;12.10;97.60
43679;DHT22;29279;50.858;4.392;2023-02-15T17:50:22;12.00;98.10
43679;DHT22;29279;50.858;4.392;2023-02-15T17:52:48;12.10;98.10
43679;DHT22;29279;50.858;4.392;2023-02-15T17:55:18;12.00;98.30
43679;DHT22;29279;50.858;4.392;2023-02-15T17:58:05;12.00;98.30
43679;DHT22;29279;50.858;4.392;2023-02-15T18:00:31;12.10;98.20
43679;DHT22;29279;50.858;4.392;2023-02-15T18:03:17;12.10;98.40
43679;DHT22;29279;50.858;4.392;2023-02-15T18:06:02;12.10;98.60
43679;DHT22;29279;50.858;4.392;2023-02-15T18:08:47;12.00;98.80
43679;DHT22;29279;50.858;4.392;2023-02-15T18:11:31;12.10;98.80
43679;DHT22;29279;50.858;4.392;2023-02-15T18:14:05;12.00;98.80
43679;DHT22;29279;50.858;4.392;2023-02-15T18:16:34;12.00;98.90
43679;DHT22;29279;50.858;4.392;2023-02-15T18:19:02;11.90;99.00
43679;DHT22;29279;50.858;4.392;2023-02-15T18:21:30;12.00;99.00
43679;DHT22;29279;50.858;4.392;2023-02-15T18:23:55;11.90;99.10
43679;DHT22;29279;50.858;4.392;2023-02-15T18:26:23;11.90;99.00
43679;DHT22;29279;50.858;4.392;2023-02-15T18:28:50;11.90;99.10
43679;DHT22;29279;50.858;4.392;2023-02-15T18:31:16;12.10;99.90
43679;DHT22;29279;50.858;4.392;2023-02-15T18:33:48;12.10;99.90
43679;DHT22;29279;50.858;4.392;2023-02-15T18:36:31;12.10;99.60
43679;DHT22;29279;50.858;4.392;2023-02-15T18:38:58;12.10;99.50
43679;DHT22;29279;50.858;4.392;2023-02-15T18:41:24;12.00;99.60
43679;DHT22;29279;50.858;4.392;2023-02-15T18:43:51;12.00;99.70
43679;DHT22;29279;50.858;4.392;2023-02-15T18:46:18;12.00;99.70
43679;DHT22;29279;50.858;4.392;2023-02-15T18:48:44;12.00;99.80
43679;DHT22;29279;50.858;4.392;2023-02-15T18:51:22;11.90;99.90
43679;DHT22;29279;50.858;4.392;2023-02-15T18:53:50;11.90;99.90
43679;DHT22;29279;50.858;4.392;2023-02-15T18:56:18;11.70;99.90
43679;DHT22;29279;50.858;4.392;2023-02-15T18:58:45;11.80;99.90
43679;DHT22;29279;50.858;4.392;2023-02-15T19:01:15;11.90;99.90
43679;DHT22;29279;50.858;4.392;2023-02-15T19:03:51;11.90;99.90